Time;durP1;ratioP1;P1;durP2;ratioP2;P2;SDS_P1;SDS_P2;PMS_P1;PMS_P2;Temp;Humidity;BMP_temperature;BMP_pressure;BME280_temperature;BME280_humidity;BME280_pressure;Samples;Min_cycle;Max_cycle;Signal;HPM_P1;HPM_P2
2022/08/17 00:02:09;;;;;;;10.93;5.00;;;;;;;;;;4957012;28;20659;-45
2022/08/17 00:04:35;;;;;;;10.80;4.93;;;;;;;;;;4955059;28;20516;-45
2022/08/17 00:07:01;;;;;;;11.37;4.60;;;;;;;;;;4954788;28;20192;-45
2022/08/17 00:09:27;;;;;;;10.63;5.50;;;;;;;;;;4958608;28;20232;-45
2022/08/17 00:11:54;;;;;;;11.20;4.90;;;;;;;;;;4956355;28;20708;-45
2022/08/17 00:14:20;;;;;;;11.10;5.27;;;;;;;;;;4953230;28;20174;-45
2022/08/17 00:16:48;;;;;;;9.60;4.80;;;;;;;;;;4956129;28;20248;-45
2022/08/17 00:19:16;;;;;;;10.40;5.07;;;;;;;;;;4958702;28;20258;-45
2022/08/17 00:21:44;;;;;;;7.40;4.90;;;;;;;;;;4954959;28;20593;-45
2022/08/17 00:24:10;;;;;;;13.67;5.90;;;;;;;;;;4952842;28;20659;-45
2022/08/17 00:26:37;;;;;;;12.17;5.73;;;;;;;;;;4955955;28;20178;-45
2022/08/17 00:29:04;;;;;;;10.63;5.00;;;;;;;;;;4959421;28;20214;-45
2022/08/17 00:31:30;;;;;;;12.23;4.97;;;;;;;;;;4954761;28;20181;-45
2022/08/17 00:33:56;;;;;;;9.90;5.17;;;;;;;;;;4961327;28;20640;-45
2022/08/17 00:36:23;;;;;;;10.33;5.33;;;;;;;;;;4957828;28;20738;-46
2022/08/17 00:38:49;;;;;;;10.27;5.10;;;;;;;;;;4955945;28;20198;-45
2022/08/17 00:41:20;;;;;;;10.17;5.70;;;;;;;;;;4958740;28;20436;-45
2022/08/17 00:43:50;;;;;;;9.10;5.40;;;;;;;;;;4960492;28;20181;-45
2022/08/17 00:46:25;;;;;;;8.30;5.00;;;;;;;;;;4958714;28;20669;-44
2022/08/17 00:48:51;;;;;;;8.53;4.87;;;;;;;;;;4955114;28;20714;-45
2022/08/17 00:51:36;;;;;;;9.23;4.70;;;;;;;;;;4957425;28;20718;-45
2022/08/17 00:54:06;;;;;;;13.20;6.10;;;;;;;;;;4960990;28;20178;-45
2022/08/17 00:56:34;;;;;;;9.63;5.60;;;;;;;;;;4959069;28;20629;-45
2022/08/17 00:59:02;;;;;;;10.10;5.33;;;;;;;;;;4956105;28;20221;-45
2022/08/17 01:01:28;;;;;;;16.00;6.83;;;;;;;;;;4956343;28;20536;-45
2022/08/17 01:03:55;;;;;;;8.97;6.00;;;;;;;;;;4956896;28;20731;-45
2022/08/17 01:06:22;;;;;;;10.90;5.53;;;;;;;;;;4957588;28;20185;-44
2022/08/17 01:08:50;;;;;;;10.13;5.97;;;;;;;;;;4955858;28;20742;-45
2022/08/17 01:11:17;;;;;;;10.90;6.10;;;;;;;;;;4958700;28;20332;-45
2022/08/17 01:13:44;;;;;;;12.33;6.30;;;;;;;;;;4958279;28;20171;-44
2022/08/17 01:16:10;;;;;;;12.93;6.17;;;;;;;;;;4956337;28;20409;-45
2022/08/17 01:18:37;;;;;;;10.37;5.17;;;;;;;;;;4956772;28;20653;-45
2022/08/17 01:21:06;;;;;;;8.93;5.33;;;;;;;;;;4959154;28;20537;-44
2022/08/17 01:23:32;;;;;;;7.63;4.73;;;;;;;;;;4958278;28;20182;-45
2022/08/17 01:26:00;;;;;;;8.63;5.23;;;;;;;;;;4960462;28;20190;-45
2022/08/17 01:28:27;;;;;;;12.47;5.30;;;;;;;;;;4957516;28;20637;-44
2022/08/17 01:30:54;;;;;;;8.17;5.20;;;;;;;;;;4957756;28;20185;-45
2022/08/17 01:33:20;;;;;;;7.43;5.00;;;;;;;;;;4959375;28;20369;-45
2022/08/17 01:35:47;;;;;;;9.00;5.00;;;;;;;;;;4957733;28;20178;-44
2022/08/17 01:38:13;;;;;;;8.83;5.47;;;;;;;;;;4958010;28;20209;-44
2022/08/17 01:40:43;;;;;;;8.53;5.70;;;;;;;;;;4959841;28;20500;-45
2022/08/17 01:43:17;;;;;;;8.57;5.27;;;;;;;;;;4958620;28;20174;-44
2022/08/17 01:45:45;;;;;;;10.70;5.80;;;;;;;;;;4953079;28;20247;-45
2022/08/17 01:48:12;;;;;;;9.03;5.60;;;;;;;;;;4957567;28;20216;-45
2022/08/17 01:50:39;;;;;;;7.77;5.43;;;;;;;;;;4958232;28;20571;-45
2022/08/17 01:53:08;;;;;;;8.97;5.57;;;;;;;;;;4955415;28;20598;-45
2022/08/17 01:55:39;;;;;;;9.87;5.50;;;;;;;;;;4958180;28;20174;-44
2022/08/17 01:58:08;;;;;;;13.07;5.70;;;;;;;;;;4958067;28;20178;-45
2022/08/17 02:00:35;;;;;;;9.27;5.13;;;;;;;;;;4956657;28;20741;-44
2022/08/17 02:03:01;;;;;;;9.57;5.87;;;;;;;;;;4955478;28;20244;-45
2022/08/17 02:05:27;;;;;;;9.20;5.40;;;;;;;;;;4959899;28;20174;-45
2022/08/17 02:07:53;;;;;;;10.93;6.13;;;;;;;;;;4958115;28;20183;-45
2022/08/17 02:10:19;;;;;;;10.63;6.00;;;;;;;;;;4954879;28;20704;-44
2022/08/17 02:12:45;;;;;;;8.97;6.13;;;;;;;;;;4957621;28;20193;-45
2022/08/17 02:15:13;;;;;;;10.47;5.53;;;;;;;;;;4953695;28;20174;-45
2022/08/17 02:17:40;;;;;;;8.87;5.83;;;;;;;;;;4955106;28;20264;-45
2022/08/17 02:20:07;;;;;;;12.43;6.30;;;;;;;;;;4957561;28;20190;-45
2022/08/17 02:22:35;;;;;;;10.83;6.47;;;;;;;;;;4957335;28;20227;-44
2022/08/17 02:25:01;;;;;;;11.20;7.33;;;;;;;;;;4956204;28;20681;-45
2022/08/17 02:27:28;;;;;;;8.83;7.03;;;;;;;;;;4958659;28;20174;-45
2022/08/17 02:29:54;;;;;;;12.40;6.63;;;;;;;;;;4954579;28;20212;-44
2022/08/17 02:32:21;;;;;;;15.73;7.90;;;;;;;;;;4955625;28;20468;-45
2022/08/17 02:34:47;;;;;;;11.87;7.77;;;;;;;;;;4958465;28;20189;-45
2022/08/17 02:37:16;;;;;;;10.60;7.80;;;;;;;;;;4958237;28;20186;-45
2022/08/17 02:39:43;;;;;;;13.47;9.70;;;;;;;;;;4954893;28;20206;-44
2022/08/17 02:42:09;;;;;;;17.10;10.03;;;;;;;;;;4958252;28;20709;-45
2022/08/17 02:44:35;;;;;;;12.83;8.77;;;;;;;;;;4956266;28;20674;-45
2022/08/17 02:47:01;;;;;;;10.07;8.10;;;;;;;;;;4954785;28;20188;-45
2022/08/17 02:49:27;;;;;;;16.77;9.30;;;;;;;;;;4956395;28;20185;-45
2022/08/17 02:51:53;;;;;;;12.23;8.87;;;;;;;;;;4955421;28;20174;-44
2022/08/17 02:54:19;;;;;;;12.37;7.80;;;;;;;;;;4956367;28;20754;-45
2022/08/17 02:56:45;;;;;;;12.63;9.17;;;;;;;;;;4950029;28;20600;-45
2022/08/17 02:59:12;;;;;;;10.03;8.43;;;;;;;;;;4956416;28;20175;-45
2022/08/17 03:01:38;;;;;;;15.80;9.87;;;;;;;;;;4953317;28;20205;-45
2022/08/17 03:04:04;;;;;;;12.97;9.27;;;;;;;;;;4952545;28;20182;-45
2022/08/17 03:06:30;;;;;;;13.33;8.77;;;;;;;;;;4955724;28;20244;-44
2022/08/17 03:08:56;;;;;;;13.83;8.53;;;;;;;;;;4956166;28;20906;-44
2022/08/17 03:11:22;;;;;;;14.73;10.13;;;;;;;;;;4969507;28;20280;-45
2022/08/17 03:13:49;;;;;;;18.00;10.27;;;;;;;;;;4952768;28;20241;-45
2022/08/17 03:16:15;;;;;;;13.93;10.27;;;;;;;;;;4956397;28;20223;-45
2022/08/17 03:18:41;;;;;;;11.60;9.07;;;;;;;;;;4952359;28;20265;-45
2022/08/17 03:21:08;;;;;;;16.30;9.80;;;;;;;;;;4956863;28;20308;-45
2022/08/17 03:23:40;;;;;;;13.57;9.83;;;;;;;;;;4953367;28;20644;-45
2022/08/17 03:26:09;;;;;;;15.77;9.63;;;;;;;;;;4953119;28;20174;-44
2022/08/17 03:28:36;;;;;;;18.17;10.63;;;;;;;;;;4957436;28;20183;-45
2022/08/17 03:31:03;;;;;;;16.00;11.03;;;;;;;;;;4956479;28;20607;-45
2022/08/17 03:33:30;;;;;;;16.27;12.07;;;;;;;;;;4954408;28;20186;-45
2022/08/17 03:35:56;;;;;;;17.13;11.57;;;;;;;;;;4958177;28;20189;-45
2022/08/17 03:38:22;;;;;;;16.63;12.27;;;;;;;;;;4955514;28;20619;-45
2022/08/17 03:40:48;;;;;;;15.13;11.43;;;;;;;;;;4951581;28;20202;-45
2022/08/17 03:43:15;;;;;;;12.00;9.47;;;;;;;;;;4953937;28;20180;-45
2022/08/17 03:56:46;;;;;;;11.73;10.00;;;;;;;;;;4950242;28;20284;-45
2022/08/17 03:59:17;;;;;;;16.23;10.33;;;;;;;;;;4956419;28;20531;-45
2022/08/17 04:01:44;;;;;;;15.03;10.50;;;;;;;;;;4952532;28;20750;-45
2022/08/17 04:04:10;;;;;;;15.53;9.77;;;;;;;;;;4954431;28;20207;-44
2022/08/17 04:06:36;;;;;;;15.13;10.20;;;;;;;;;;4954734;28;20196;-45
2022/08/17 04:09:03;;;;;;;29.27;13.20;;;;;;;;;;4954423;28;20448;-45
2022/08/17 04:11:29;;;;;;;17.70;11.63;;;;;;;;;;4959506;28;20474;-45
2022/08/17 04:13:55;;;;;;;16.43;11.13;;;;;;;;;;4960986;28;20753;-45
2022/08/17 04:16:22;;;;;;;18.07;11.83;;;;;;;;;;4957800;28;20186;-45
2022/08/17 04:18:48;;;;;;;25.73;12.43;;;;;;;;;;4959879;28;20423;-45
2022/08/17 04:21:14;;;;;;;17.87;11.80;;;;;;;;;;4959517;28;20630;-45
2022/08/17 04:23:40;;;;;;;17.43;12.20;;;;;;;;;;4969550;28;20412;-44
2022/08/17 04:26:07;;;;;;;19.63;12.57;;;;;;;;;;4962286;28;20571;-45
2022/08/17 04:28:33;;;;;;;20.17;13.53;;;;;;;;;;4957388;28;20642;-44
2022/08/17 04:30:59;;;;;;;17.57;13.67;;;;;;;;;;4957361;28;20421;-45
2022/08/17 04:33:26;;;;;;;16.33;11.83;;;;;;;;;;4960869;28;20276;-45
2022/08/17 04:35:53;;;;;;;19.30;13.13;;;;;;;;;;4958870;28;20185;-45
2022/08/17 04:38:21;;;;;;;18.80;12.10;;;;;;;;;;4955422;28;20499;-45
2022/08/17 04:43:32;;;;;;;22.33;15.63;;;;;;;;;;4959491;28;20217;-45
2022/08/17 04:46:04;;;;;;;21.00;15.33;;;;;;;;;;4957563;28;20185;-45
2022/08/17 04:48:33;;;;;;;20.23;14.83;;;;;;;;;;4955633;28;20213;-45
2022/08/17 04:50:59;;;;;;;18.07;13.27;;;;;;;;;;4960942;28;20193;-45
2022/08/17 04:53:26;;;;;;;20.70;13.33;;;;;;;;;;4956598;28;20573;-45
2022/08/17 04:55:52;;;;;;;17.20;12.80;;;;;;;;;;4987018;28;20768;-45
2022/08/17 04:58:18;;;;;;;15.67;9.93;;;;;;;;;;4968927;28;20644;-45
2022/08/17 05:00:44;;;;;;;18.73;9.63;;;;;;;;;;4958518;28;20690;-45
2022/08/17 05:03:11;;;;;;;11.40;8.17;;;;;;;;;;4955269;28;20914;-45
2022/08/17 05:05:38;;;;;;;15.03;7.90;;;;;;;;;;4957302;28;20166;-45
2022/08/17 05:08:06;;;;;;;12.97;7.77;;;;;;;;;;4960589;28;20179;-45
2022/08/17 05:10:37;;;;;;;14.50;7.80;;;;;;;;;;4954569;28;20189;-45
2022/08/17 05:13:05;;;;;;;14.27;7.80;;;;;;;;;;4959900;28;20503;-45
2022/08/17 05:15:32;;;;;;;15.90;8.80;;;;;;;;;;4957213;28;20356;-45
2022/08/17 05:17:58;;;;;;;13.17;7.77;;;;;;;;;;4954743;28;20649;-45
2022/08/17 05:20:25;;;;;;;17.70;8.40;;;;;;;;;;4959795;28;20193;-45
2022/08/17 05:22:52;;;;;;;12.93;8.23;;;;;;;;;;4958649;28;20538;-45
2022/08/17 05:25:19;;;;;;;12.93;8.60;;;;;;;;;;4956624;28;20182;-45
2022/08/17 05:27:45;;;;;;;13.93;9.27;;;;;;;;;;4957646;28;20828;-45
2022/08/17 05:30:12;;;;;;;22.63;9.50;;;;;;;;;;4957723;28;20185;-45
2022/08/17 05:32:38;;;;;;;18.60;10.53;;;;;;;;;;4959556;28;20391;-46
2022/08/17 05:35:05;;;;;;;16.00;10.27;;;;;;;;;;4955396;28;20407;-46
2022/08/17 05:37:32;;;;;;;18.23;11.00;;;;;;;;;;4955753;28;20182;-46
2022/08/17 05:39:58;;;;;;;18.37;11.43;;;;;;;;;;4958094;28;20324;-46
2022/08/17 05:42:24;;;;;;;22.13;11.90;;;;;;;;;;4957676;28;20798;-46
2022/08/17 05:44:50;;;;;;;16.97;9.77;;;;;;;;;;4955582;28;20190;-46
2022/08/17 05:47:17;;;;;;;17.47;11.00;;;;;;;;;;4958962;28;20320;-46
2022/08/17 05:49:43;;;;;;;23.63;12.00;;;;;;;;;;4959950;28;20190;-46
2022/08/17 05:52:18;;;;;;;21.00;12.37;;;;;;;;;;4955204;28;20615;-46
2022/08/17 05:54:53;;;;;;;21.47;12.37;;;;;;;;;;4960113;28;20966;-46
2022/08/17 05:57:25;;;;;;;27.07;13.53;;;;;;;;;;4958198;28;20179;-46
2022/08/17 06:00:05;;;;;;;24.23;15.27;;;;;;;;;;4954989;28;20548;-46
2022/08/17 06:02:34;;;;;;;19.77;13.43;;;;;;;;;;4956516;28;20185;-46
2022/08/17 06:05:03;;;;;;;30.03;17.03;;;;;;;;;;4956363;28;20609;-46
2022/08/17 06:07:48;;;;;;;32.70;20.60;;;;;;;;;;4955663;28;20186;-46
2022/08/17 06:10:14;;;;;;;34.03;21.03;;;;;;;;;;4960513;28;20186;-46
2022/08/17 06:13:03;;;;;;;40.60;25.67;;;;;;;;;;4960055;28;20188;-46
2022/08/17 06:15:41;;;;;;;36.27;22.00;;;;;;;;;;4954813;28;20178;-46
2022/08/17 06:18:08;;;;;;;45.23;25.73;;;;;;;;;;4956103;28;20365;-46
2022/08/17 06:20:38;;;;;;;41.03;22.93;;;;;;;;;;4957207;28;20204;-46
2022/08/17 06:23:08;;;;;;;37.63;21.27;;;;;;;;;;4955107;28;20523;-46
2022/08/17 06:25:56;;;;;;;30.43;20.50;;;;;;;;;;4957628;28;20171;-46
2022/08/17 06:28:35;;;;;;;31.43;21.13;;;;;;;;;;4954016;28;20473;-46
2022/08/17 06:31:05;;;;;;;27.40;19.47;;;;;;;;;;4954959;28;20631;-46
2022/08/17 06:33:34;;;;;;;30.33;20.60;;;;;;;;;;4952308;28;20181;-46
2022/08/17 06:36:11;;;;;;;32.80;20.93;;;;;;;;;;4952523;28;20913;-46
2022/08/17 06:38:40;;;;;;;36.97;21.60;;;;;;;;;;4953478;28;20563;-46
2022/08/17 06:41:12;;;;;;;38.10;22.07;;;;;;;;;;4953486;28;20883;-46
2022/08/17 06:43:44;;;;;;;34.70;22.30;;;;;;;;;;4953744;28;20387;-46
2022/08/17 06:46:14;;;;;;;33.67;21.47;;;;;;;;;;4957398;28;20509;-46
2022/08/17 06:49:07;;;;;;;36.27;20.93;;;;;;;;;;4956986;28;20606;-46
2022/08/17 06:51:45;;;;;;;31.47;20.00;;;;;;;;;;4953581;28;20240;-46
2022/08/17 06:54:14;;;;;;;35.27;19.27;;;;;;;;;;4959164;28;20280;-46
2022/08/17 06:56:47;;;;;;;32.70;22.20;;;;;;;;;;4954207;28;20178;-46
2022/08/17 06:59:17;;;;;;;30.57;20.87;;;;;;;;;;4958200;28;20652;-46
2022/08/17 07:01:45;;;;;;;40.53;24.43;;;;;;;;;;4955212;28;20852;-46
2022/08/17 07:04:14;;;;;;;40.53;25.57;;;;;;;;;;4952079;28;20174;-46
2022/08/17 07:08:00;;;;;;;43.03;26.33;;;;;;;;;;4955468;28;20182;-46
2022/08/17 07:09:48;;;;;;;35.67;23.70;;;;;;;;;;4955526;28;20260;-46
2022/08/17 07:12:15;;;;;;;40.20;25.17;;;;;;;;;;4955747;28;20382;-46
2022/08/17 07:14:50;;;;;;;30.60;22.00;;;;;;;;;;4958983;28;20312;-46
2022/08/17 07:17:17;;;;;;;36.03;24.17;;;;;;;;;;4953470;28;20568;-46
2022/08/17 07:19:44;;;;;;;26.87;22.33;;;;;;;;;;4958124;28;20189;-46
2022/08/17 07:22:32;;;;;;;35.40;23.57;;;;;;;;;;4951477;28;20820;-46
2022/08/17 07:25:06;;;;;;;34.37;22.40;;;;;;;;;;4955971;28;20402;-46
2022/08/17 07:27:44;;;;;;;29.13;19.20;;;;;;;;;;4960264;28;20248;-46
2022/08/17 07:30:16;;;;;;;37.13;21.67;;;;;;;;;;4953296;28;20956;-46
2022/08/17 07:32:47;;;;;;;32.67;20.17;;;;;;;;;;4954059;28;20166;-46
2022/08/17 07:35:22;;;;;;;29.10;19.97;;;;;;;;;;4956312;28;20698;-46
2022/08/17 07:37:52;;;;;;;36.80;22.63;;;;;;;;;;4954003;28;20304;-46
2022/08/17 07:40:27;;;;;;;37.07;22.90;;;;;;;;;;4955836;28;20197;-46
2022/08/17 07:43:11;;;;;;;36.27;22.20;;;;;;;;;;4958882;28;20176;-46
2022/08/17 07:48:26;;;;;;;37.50;22.27;;;;;;;;;;4959191;28;20615;-46
2022/08/17 07:50:52;;;;;;;33.37;21.23;;;;;;;;;;4962620;28;20244;-46
2022/08/17 07:53:21;;;;;;;37.63;21.87;;;;;;;;;;4956523;28;20228;-46
2022/08/17 07:55:49;;;;;;;33.40;20.70;;;;;;;;;;4958485;28;20182;-46
2022/08/17 07:58:15;;;;;;;30.57;19.07;;;;;;;;;;4962499;28;21048;-45
2022/08/17 08:00:41;;;;;;;28.03;18.83;;;;;;;;;;4957461;28;20669;-46
2022/08/17 08:03:13;;;;;;;40.60;20.73;;;;;;;;;;4956444;28;20170;-46
2022/08/17 08:05:51;;;;;;;28.00;18.93;;;;;;;;;;4958595;28;20178;-45
2022/08/17 08:08:17;;;;;;;26.83;18.97;;;;;;;;;;4958157;28;20170;-46
2022/08/17 08:10:44;;;;;;;35.30;19.10;;;;;;;;;;4961167;28;20190;-46
2022/08/17 08:13:10;;;;;;;25.33;15.77;;;;;;;;;;4958390;28;20555;-46
2022/08/17 08:15:47;;;;;;;26.50;17.40;;;;;;;;;;4957153;28;20587;-46
2022/08/17 08:18:25;;;;;;;29.17;17.10;;;;;;;;;;4959082;28;20177;-47
2022/08/17 08:20:59;;;;;;;25.70;16.23;;;;;;;;;;4960209;28;20796;-46
2022/08/17 08:23:38;;;;;;;21.03;15.27;;;;;;;;;;4956489;28;20179;-46
2022/08/17 08:26:25;;;;;;;27.53;15.67;;;;;;;;;;4960946;28;20305;-46
2022/08/17 08:29:05;;;;;;;22.13;14.50;;;;;;;;;;4955861;28;20524;-46
2022/08/17 08:31:50;;;;;;;30.03;16.37;;;;;;;;;;4957542;28;20171;-47
2022/08/17 08:34:24;;;;;;;31.40;16.30;;;;;;;;;;4959832;28;20182;-46
2022/08/17 08:36:53;;;;;;;29.17;14.60;;;;;;;;;;4955099;28;20185;-46
2022/08/17 08:39:43;;;;;;;26.97;14.80;;;;;;;;;;4959930;28;20193;-46
2022/08/17 08:42:22;;;;;;;22.70;14.20;;;;;;;;;;4969575;28;20182;-47
2022/08/17 08:44:59;;;;;;;28.50;13.00;;;;;;;;;;4957508;28;20745;-46
2022/08/17 08:47:34;;;;;;;20.10;12.77;;;;;;;;;;4958157;28;20363;-47
2022/08/17 08:50:00;;;;;;;23.30;13.13;;;;;;;;;;4957017;28;20185;-47
2022/08/17 08:52:34;;;;;;;28.37;15.43;;;;;;;;;;4954165;28;20277;-47
2022/08/17 08:55:19;;;;;;;28.87;13.87;;;;;;;;;;4959968;28;20370;-47
2022/08/17 08:57:53;;;;;;;22.20;13.43;;;;;;;;;;4956054;28;20285;-47
2022/08/17 09:00:21;;;;;;;20.23;12.80;;;;;;;;;;4957485;28;20663;-47
2022/08/17 09:03:08;;;;;;;21.13;12.57;;;;;;;;;;4960460;28;20496;-46
2022/08/17 09:05:47;;;;;;;18.17;10.67;;;;;;;;;;4956459;28;20677;-47
2022/08/17 09:08:14;;;;;;;19.87;10.27;;;;;;;;;;4957571;28;20567;-47
2022/08/17 09:10:55;;;;;;;21.07;10.70;;;;;;;;;;4959594;28;20591;-47
2022/08/17 09:13:21;;;;;;;18.63;10.13;;;;;;;;;;4955426;28;20298;-47
2022/08/17 09:15:50;;;;;;;20.10;9.73;;;;;;;;;;4956584;28;20182;-47
2022/08/17 09:18:23;;;;;;;19.07;9.20;;;;;;;;;;4959310;28;20186;-46
2022/08/17 09:20:51;;;;;;;18.50;9.43;;;;;;;;;;4954885;28;20202;-47
2022/08/17 09:23:31;;;;;;;16.53;9.90;;;;;;;;;;4957281;28;20177;-47
2022/08/17 09:26:01;;;;;;;18.17;9.40;;;;;;;;;;4955213;28;20265;-46
2022/08/17 09:28:30;;;;;;;20.60;9.17;;;;;;;;;;4958695;28;20197;-47
2022/08/17 09:31:02;;;;;;;17.20;9.07;;;;;;;;;;4960030;28;20234;-46
2022/08/17 09:33:29;;;;;;;16.93;9.37;;;;;;;;;;4955343;28;20355;-47
2022/08/17 09:36:09;;;;;;;16.23;9.10;;;;;;;;;;4955183;28;20185;-46
2022/08/17 09:38:52;;;;;;;12.67;8.17;;;;;;;;;;4959289;28;20772;-46
2022/08/17 09:41:38;;;;;;;14.13;8.17;;;;;;;;;;4954857;28;20730;-46
2022/08/17 09:44:16;;;;;;;20.57;10.00;;;;;;;;;;4941996;28;20192;-46
2022/08/17 09:46:48;;;;;;;13.40;8.80;;;;;;;;;;4956109;28;20175;-47
2022/08/17 09:49:14;;;;;;;18.27;9.63;;;;;;;;;;4936130;28;20304;-47
2022/08/17 09:51:54;;;;;;;19.33;9.80;;;;;;;;;;4936478;28;20190;-46
2022/08/17 09:54:24;;;;;;;16.37;8.87;;;;;;;;;;4937803;28;20190;-46
2022/08/17 09:56:55;;;;;;;17.13;9.80;;;;;;;;;;4952861;28;20221;-47
2022/08/17 09:59:41;;;;;;;17.80;9.37;;;;;;;;;;4953365;28;20695;-46
2022/08/17 10:02:25;;;;;;;18.27;9.50;;;;;;;;;;4954517;28;20550;-46
2022/08/17 10:04:57;;;;;;;18.87;9.53;;;;;;;;;;4957871;28;20453;-46
2022/08/17 10:07:40;;;;;;;16.17;9.03;;;;;;;;;;4953230;28;20191;-46
2022/08/17 10:10:13;;;;;;;15.27;9.57;;;;;;;;;;4956173;28;20279;-46
2022/08/17 10:13:02;;;;;;;15.03;8.47;;;;;;;;;;4957684;28;20738;-46
2022/08/17 10:15:42;;;;;;;18.27;9.03;;;;;;;;;;4949646;28;20198;-46
2022/08/17 10:18:27;;;;;;;14.63;8.90;;;;;;;;;;4954490;28;20194;-46
2022/08/17 10:26:39;;;;;;;16.87;10.00;;;;;;;;;;4955956;28;20313;-46
2022/08/17 10:29:26;;;;;;;22.67;10.23;;;;;;;;;;4955241;28;20273;-46
2022/08/17 10:31:56;;;;;;;18.50;9.73;;;;;;;;;;4954036;28;20186;-46
2022/08/17 10:34:28;;;;;;;21.23;10.67;;;;;;;;;;4953705;28;20201;-46
2022/08/17 10:37:13;;;;;;;15.63;8.93;;;;;;;;;;4954851;28;20186;-46
2022/08/17 10:40:14;;;;;;;18.87;10.10;;;;;;;;;;4952958;28;20491;-46
2022/08/17 10:42:48;;;;;;;15.63;9.60;;;;;;;;;;4916273;28;20179;-46
2022/08/17 10:45:18;;;;;;;16.17;9.70;;;;;;;;;;4953665;28;20186;-47
2022/08/17 10:47:59;;;;;;;16.33;10.30;;;;;;;;;;4956302;28;20201;-46
2022/08/17 10:50:45;;;;;;;19.20;10.00;;;;;;;;;;4953688;28;20417;-46
2022/08/17 10:53:31;;;;;;;16.40;9.27;;;;;;;;;;4956716;28;20785;-44
2022/08/17 10:56:12;;;;;;;16.50;8.63;;;;;;;;;;4955619;28;20588;-46
2022/08/17 10:58:45;;;;;;;14.63;9.10;;;;;;;;;;4954248;28;20497;-46
2022/08/17 11:01:11;;;;;;;14.77;9.23;;;;;;;;;;4952193;28;20586;-46
2022/08/17 11:03:51;;;;;;;17.47;9.53;;;;;;;;;;4957660;28;20957;-46
2022/08/17 11:06:28;;;;;;;20.00;10.80;;;;;;;;;;4954512;28;20547;-46
2022/08/17 11:08:55;;;;;;;16.83;9.30;;;;;;;;;;4955834;28;20420;-46
2022/08/17 11:11:34;;;;;;;17.60;9.63;;;;;;;;;;4953121;28;22337;-46
2022/08/17 11:14:13;;;;;;;13.67;9.43;;;;;;;;;;4967953;28;20665;-46
2022/08/17 11:16:57;;;;;;;17.63;9.53;;;;;;;;;;4955536;28;20980;-46
2022/08/17 11:19:42;;;;;;;14.17;9.17;;;;;;;;;;4956768;28;20306;-46
2022/08/17 11:22:08;;;;;;;16.53;9.97;;;;;;;;;;4955166;28;20202;-45
2022/08/17 11:24:34;;;;;;;21.93;10.27;;;;;;;;;;4948898;28;20183;-46
2022/08/17 11:27:03;;;;;;;13.77;9.23;;;;;;;;;;4956242;28;20205;-46
2022/08/17 11:29:33;;;;;;;17.57;9.73;;;;;;;;;;4956633;28;21030;-46
2022/08/17 11:32:02;;;;;;;18.20;8.90;;;;;;;;;;4952288;28;20277;-46
2022/08/17 11:34:30;;;;;;;15.70;8.77;;;;;;;;;;4955031;28;20711;-46
2022/08/17 11:37:02;;;;;;;15.63;9.40;;;;;;;;;;4957297;28;20299;-46
2022/08/17 11:39:47;;;;;;;16.00;9.17;;;;;;;;;;4953232;28;20572;-46
2022/08/17 11:42:19;;;;;;;15.73;9.00;;;;;;;;;;4954421;28;20616;-45
2022/08/17 11:44:45;;;;;;;14.40;8.90;;;;;;;;;;4955965;28;20950;-46
2022/08/17 11:52:50;;;;;;;11.87;8.30;;;;;;;;;;4957182;28;21141;-46
2022/08/17 11:55:33;;;;;;;15.67;8.83;;;;;;;;;;4952243;28;20206;-46
2022/08/17 11:58:02;;;;;;;13.70;7.97;;;;;;;;;;4957417;28;20191;-46
2022/08/17 12:00:40;;;;;;;16.70;8.40;;;;;;;;;;4953384;28;20195;-46
2022/08/17 12:03:25;;;;;;;13.97;7.73;;;;;;;;;;4953089;28;20171;-46
2022/08/17 12:06:00;;;;;;;13.10;6.70;;;;;;;;;;4954172;28;20720;-46
2022/08/17 12:08:29;;;;;;;12.03;6.23;;;;;;;;;;4951220;28;20929;-46
2022/08/17 12:11:04;;;;;;;15.73;6.50;;;;;;;;;;4952542;28;20450;-46
2022/08/17 12:13:32;;;;;;;13.23;6.17;;;;;;;;;;4957265;28;20176;-46
2022/08/17 12:15:59;;;;;;;12.73;5.90;;;;;;;;;;4957144;28;20442;-46
2022/08/17 12:18:26;;;;;;;13.17;6.10;;;;;;;;;;4954667;28;20168;-46
2022/08/17 12:21:14;;;;;;;10.90;5.63;;;;;;;;;;4956353;28;20199;-46
2022/08/17 12:24:06;;;;;;;11.93;5.80;;;;;;;;;;4956781;28;20179;-46
2022/08/17 12:26:33;;;;;;;14.03;6.40;;;;;;;;;;4955506;28;20207;-46
2022/08/17 12:29:18;;;;;;;11.87;6.13;;;;;;;;;;4954326;28;20692;-46
2022/08/17 12:31:49;;;;;;;12.33;6.30;;;;;;;;;;4960429;28;20597;-46
2022/08/17 12:34:26;;;;;;;14.27;6.17;;;;;;;;;;4959506;28;20172;-46
2022/08/17 12:36:57;;;;;;;10.30;5.20;;;;;;;;;;4954286;28;20181;-46
2022/08/17 12:39:25;;;;;;;11.17;5.87;;;;;;;;;;4956687;28;20196;-46
2022/08/17 12:41:53;;;;;;;14.33;5.97;;;;;;;;;;4959878;28;20204;-46
2022/08/17 12:44:24;;;;;;;13.27;6.13;;;;;;;;;;4956083;28;20702;-43
2022/08/17 12:47:03;;;;;;;12.37;6.00;;;;;;;;;;4958968;28;20173;-45
2022/08/17 12:49:31;;;;;;;9.20;5.43;;;;;;;;;;4957644;28;20177;-45
2022/08/17 12:52:17;;;;;;;12.83;5.97;;;;;;;;;;4955284;28;20178;-45
2022/08/17 12:54:49;;;;;;;10.60;5.17;;;;;;;;;;4958854;28;20268;-45
2022/08/17 12:57:21;;;;;;;9.63;5.27;;;;;;;;;;4957558;28;20286;-45
2022/08/17 12:59:53;;;;;;;10.13;5.80;;;;;;;;;;4957407;28;20959;-44
2022/08/17 13:02:25;;;;;;;12.20;5.73;;;;;;;;;;4959252;28;20379;-45
2022/08/17 13:04:51;;;;;;;12.47;5.50;;;;;;;;;;4974407;28;20178;-45
2022/08/17 13:07:31;;;;;;;12.43;5.30;;;;;;;;;;4955714;28;20178;-44
2022/08/17 13:09:58;;;;;;;10.70;5.10;;;;;;;;;;4957748;28;20178;-44
2022/08/17 13:12:28;;;;;;;11.60;5.27;;;;;;;;;;4956460;28;20166;-44
2022/08/17 13:14:56;;;;;;;11.57;5.40;;;;;;;;;;4959864;28;20182;-44
2022/08/17 13:17:29;;;;;;;10.03;5.47;;;;;;;;;;4958254;28;21070;-44
2022/08/17 13:19:55;;;;;;;11.17;5.37;;;;;;;;;;4955911;28;20697;-44
2022/08/17 13:22:23;;;;;;;11.10;5.07;;;;;;;;;;4959473;28;20185;-44
2022/08/17 13:24:54;;;;;;;13.13;5.40;;;;;;;;;;4960208;28;20175;-44
2022/08/17 13:27:21;;;;;;;9.80;4.80;;;;;;;;;;4956478;28;20205;-44
2022/08/17 13:29:47;;;;;;;12.80;5.57;;;;;;;;;;4957202;28;20861;-44
2022/08/17 13:32:14;;;;;;;12.93;5.47;;;;;;;;;;4957163;28;20182;-44
2022/08/17 13:34:42;;;;;;;14.07;6.00;;;;;;;;;;4957266;28;20218;-45
2022/08/17 13:37:29;;;;;;;13.27;5.67;;;;;;;;;;4957391;28;20608;-44
2022/08/17 13:39:58;;;;;;;14.70;5.93;;;;;;;;;;4958551;28;20465;-45
2022/08/17 13:42:33;;;;;;;12.50;5.40;;;;;;;;;;4955755;28;20220;-44
2022/08/17 13:45:00;;;;;;;14.27;5.60;;;;;;;;;;4959922;28;20266;-44
2022/08/17 13:47:26;;;;;;;10.70;5.00;;;;;;;;;;4960214;28;20208;-44
2022/08/17 13:49:54;;;;;;;13.13;6.03;;;;;;;;;;4955338;28;20208;-44
2022/08/17 13:52:38;;;;;;;16.40;5.60;;;;;;;;;;4957643;28;20283;-44
2022/08/17 13:55:15;;;;;;;15.30;5.97;;;;;;;;;;4955715;28;20183;-45
2022/08/17 13:57:44;;;;;;;14.53;5.30;;;;;;;;;;4955793;28;20417;-44
2022/08/17 14:00:17;;;;;;;16.70;5.40;;;;;;;;;;4961091;28;20181;-45
2022/08/17 14:02:43;;;;;;;16.43;6.00;;;;;;;;;;4956438;28;20618;-45
2022/08/17 14:05:09;;;;;;;11.40;5.50;;;;;;;;;;4954760;28;20171;-44
2022/08/17 14:07:37;;;;;;;14.17;5.90;;;;;;;;;;4959998;28;20253;-44
2022/08/17 14:10:09;;;;;;;12.47;5.93;;;;;;;;;;4952711;28;20177;-44
2022/08/17 14:12:38;;;;;;;18.13;5.87;;;;;;;;;;4957547;28;20185;-44
2022/08/17 14:15:04;;;;;;;12.77;5.87;;;;;;;;;;4956278;28;20215;-45
2022/08/17 14:17:30;;;;;;;15.30;5.27;;;;;;;;;;4957036;28;20179;-45
2022/08/17 14:19:57;;;;;;;9.90;5.17;;;;;;;;;;4959426;28;20416;-45
2022/08/17 14:22:29;;;;;;;9.57;4.73;;;;;;;;;;4956168;28;20190;-45
2022/08/17 14:24:56;;;;;;;13.13;5.17;;;;;;;;;;4955646;28;20182;-45
2022/08/17 14:27:25;;;;;;;13.93;5.20;;;;;;;;;;4958225;28;20662;-45
2022/08/17 14:29:52;;;;;;;15.63;5.57;;;;;;;;;;4955665;28;21055;-45
2022/08/17 14:32:18;;;;;;;12.00;4.37;;;;;;;;;;4956319;28;20591;-45
2022/08/17 14:34:45;;;;;;;14.60;4.97;;;;;;;;;;4958902;28;20254;-45
2022/08/17 14:37:11;;;;;;;10.73;4.70;;;;;;;;;;4958717;28;20618;-45
2022/08/17 14:39:37;;;;;;;12.63;4.93;;;;;;;;;;4953277;28;20726;-45
2022/08/17 14:42:03;;;;;;;13.60;4.87;;;;;;;;;;4954120;28;20260;-45
2022/08/17 14:44:30;;;;;;;10.93;5.07;;;;;;;;;;4953933;28;20595;-45
2022/08/17 14:46:56;;;;;;;10.67;4.67;;;;;;;;;;4958448;28;20624;-45
2022/08/17 14:49:22;;;;;;;11.10;4.60;;;;;;;;;;4956841;28;20258;-46
2022/08/17 14:51:49;;;;;;;11.90;5.40;;;;;;;;;;4954773;28;20926;-45
2022/08/17 14:54:17;;;;;;;13.93;4.97;;;;;;;;;;4957968;28;20182;-45
2022/08/17 14:56:45;;;;;;;10.33;4.40;;;;;;;;;;4955499;28;20331;-45
2022/08/17 14:59:14;;;;;;;10.27;4.40;;;;;;;;;;4950890;28;20209;-45
2022/08/17 15:01:41;;;;;;;8.80;4.67;;;;;;;;;;4957884;28;20285;-45
2022/08/17 15:04:07;;;;;;;11.70;4.33;;;;;;;;;;4954740;28;20635;-45
2022/08/17 15:06:33;;;;;;;14.30;5.00;;;;;;;;;;4953935;28;20257;-45
2022/08/17 15:09:01;;;;;;;11.80;4.97;;;;;;;;;;4955766;28;20296;-46
2022/08/17 15:11:27;;;;;;;10.23;4.80;;;;;;;;;;4957454;28;20180;-45
2022/08/17 15:13:53;;;;;;;11.90;5.10;;;;;;;;;;4955315;28;20509;-45
2022/08/17 15:16:19;;;;;;;11.03;4.53;;;;;;;;;;4954385;28;20184;-45